createdAt,value
2022-12-25T00:00:34.386Z,99.99
2022-12-25T00:01:34.290Z,99.99
2022-12-25T00:02:34.432Z,99.99
2022-12-25T00:03:34.360Z,99.99
2022-12-25T00:04:34.260Z,99.99
2022-12-25T00:05:34.244Z,99.99
2022-12-25T00:06:34.249Z,99.99
2022-12-25T00:07:34.213Z,99.99
2022-12-25T00:08:34.208Z,99.99
2022-12-25T00:09:34.197Z,99.99
2022-12-25T00:10:35.656Z,99.99
2022-12-25T00:11:34.184Z,99.99
2022-12-25T00:12:34.178Z,99.99
2022-12-25T00:13:34.137Z,99.99
2022-12-25T00:14:34.132Z,99.99
2022-12-25T00:15:34.116Z,99.99
2022-12-25T00:16:34.159Z,99.99
2022-12-25T00:17:34.091Z,99.99
2022-12-25T00:18:34.078Z,99.99
2022-12-25T00:19:34.066Z,99.99
2022-12-25T00:20:34.056Z,99.99
2022-12-25T00:21:34.046Z,99.99
2022-12-25T00:22:34.051Z,99.99
2022-12-25T00:23:34.007Z,99.99
2022-12-25T00:24:34.003Z,99.99
2022-12-25T00:25:33.987Z,99.99
2022-12-25T00:26:33.979Z,99.99
2022-12-25T00:27:33.958Z,99.99
2022-12-25T00:28:33.940Z,99.99
2022-12-25T00:29:33.930Z,99.99
2022-12-25T00:30:33.915Z,99.99
2022-12-25T00:31:33.935Z,99.99
2022-12-25T00:32:33.898Z,99.99
2022-12-25T00:33:33.876Z,99.99
2022-12-25T00:34:33.864Z,99.99
2022-12-25T00:35:33.854Z,99.99
2022-12-25T00:36:41.185Z,99.99
2022-12-25T00:37:34.864Z,99.99
2022-12-25T00:38:33.844Z,99.99
2022-12-25T00:39:33.807Z,99.99
2022-12-25T00:40:33.794Z,99.99
2022-12-25T00:41:33.781Z,99.99
2022-12-25T00:42:33.763Z,99.99
2022-12-25T00:43:33.747Z,99.99
2022-12-25T00:44:33.747Z,99.99
2022-12-25T00:45:33.806Z,99.99
2022-12-25T00:46:33.838Z,99.99
2022-12-25T00:47:33.696Z,99.99
2022-12-25T00:48:33.691Z,99.99
2022-12-25T00:49:33.677Z,99.99
2022-12-25T00:50:33.659Z,99.99
2022-12-25T00:51:33.668Z,99.99
2022-12-25T00:52:33.633Z,99.99
2022-12-25T00:53:33.620Z,99.99
2022-12-25T00:54:33.657Z,99.99
2022-12-25T00:55:33.611Z,99.99
2022-12-25T00:56:33.584Z,99.99
2022-12-25T00:57:33.581Z,99.99
2022-12-25T00:58:33.553Z,99.99
2022-12-25T00:59:33.549Z,99.99
2022-12-25T01:00:33.596Z,99.99
2022-12-25T01:01:33.679Z,99.99
2022-12-25T01:02:33.702Z,99.99
2022-12-25T01:03:33.509Z,99.99
2022-12-25T01:04:33.480Z,99.99
2022-12-25T01:05:33.479Z,99.99
2022-12-25T01:06:33.469Z,99.99
2022-12-25T01:07:33.448Z,99.99
2022-12-25T01:08:33.453Z,99.99
2022-12-25T01:09:33.414Z,99.99
2022-12-25T01:10:33.424Z,99.99
2022-12-25T01:11:33.432Z,99.99
2022-12-25T01:12:33.384Z,99.99
2022-12-25T01:13:33.359Z,99.99
2022-12-25T01:14:33.356Z,99.99
2022-12-25T01:15:33.344Z,99.99
2022-12-25T01:16:33.441Z,99.99
2022-12-25T01:17:33.309Z,99.99
2022-12-25T01:18:33.308Z,99.99
2022-12-25T01:19:33.288Z,99.99
2022-12-25T01:20:33.272Z,99.99
2022-12-25T01:21:33.268Z,99.99
2022-12-25T01:22:33.260Z,99.99
2022-12-25T01:23:33.245Z,99.99
2022-12-25T01:24:33.224Z,99.99
2022-12-25T01:25:33.214Z,99.99
2022-12-25T01:26:33.227Z,99.99
2022-12-25T01:27:33.184Z,99.99
2022-12-25T01:28:33.176Z,99.99
2022-12-25T01:29:33.166Z,99.99
2022-12-25T01:30:33.157Z,99.99
2022-12-25T01:31:33.213Z,99.99
2022-12-25T01:32:33.128Z,99.99
2022-12-25T01:33:33.122Z,99.99
2022-12-25T01:34:33.090Z,99.99
2022-12-25T01:35:33.086Z,99.99
2022-12-25T01:36:33.075Z,99.99
2022-12-25T01:37:33.058Z,99.99
2022-12-25T01:38:33.044Z,99.99
2022-12-25T01:39:33.030Z,99.99
2022-12-25T01:40:33.014Z,99.99
2022-12-25T01:41:33.020Z,99.99
2022-12-25T01:42:33.027Z,99.99
2022-12-25T01:43:32.986Z,99.99
2022-12-25T01:44:32.968Z,99.99
2022-12-25T01:45:33.131Z,99.99
2022-12-25T01:46:32.948Z,99.99
2022-12-25T01:47:32.927Z,99.99
2022-12-25T01:48:32.910Z,99.99
2022-12-25T01:49:32.898Z,99.99
2022-12-25T01:50:32.893Z,99.99
2022-12-25T01:51:32.876Z,99.99
2022-12-25T01:52:32.863Z,99.99
2022-12-25T01:53:32.859Z,99.99
2022-12-25T01:54:32.850Z,99.99
2022-12-25T01:55:32.833Z,99.99
2022-12-25T01:56:32.824Z,99.99
2022-12-25T01:57:32.802Z,99.99
2022-12-25T01:58:32.819Z,99.99
2022-12-25T01:59:32.777Z,99.99
2022-12-25T02:00:32.762Z,99.99
2022-12-25T02:01:32.868Z,99.99
2022-12-25T02:02:33.062Z,99.99
2022-12-25T02:03:32.818Z,99.99
2022-12-25T02:04:32.716Z,99.99
2022-12-25T02:05:32.731Z,99.99
2022-12-25T02:06:32.682Z,99.99
2022-12-25T02:07:32.671Z,99.99
2022-12-25T02:08:32.658Z,99.99
2022-12-25T02:09:32.655Z,99.99
2022-12-25T02:10:32.635Z,99.99
2022-12-25T02:11:32.627Z,99.99
2022-12-25T02:12:32.616Z,99.99
2022-12-25T02:13:32.596Z,99.99
2022-12-25T02:14:32.705Z,99.99
2022-12-25T02:15:32.576Z,99.99
2022-12-25T02:16:32.604Z,99.99
2022-12-25T02:17:32.543Z,99.99
2022-12-25T02:18:32.535Z,99.99
2022-12-25T02:19:32.522Z,99.99
2022-12-25T02:20:32.501Z,99.99
2022-12-25T02:21:32.503Z,99.99
2022-12-25T02:22:32.504Z,99.99
2022-12-25T02:23:32.476Z,99.99
2022-12-25T02:24:32.461Z,99.99
2022-12-25T02:25:32.447Z,99.99
2022-12-25T02:26:32.426Z,99.99
2022-12-25T02:27:32.423Z,99.99
2022-12-25T02:28:32.407Z,99.99
2022-12-25T02:29:32.394Z,99.99
2022-12-25T02:30:32.401Z,99.99
2022-12-25T02:31:32.426Z,99.99
2022-12-25T02:32:32.381Z,99.99
2022-12-25T02:33:32.347Z,99.99
2022-12-25T02:34:32.337Z,99.99
2022-12-25T02:35:32.317Z,99.99
2022-12-25T02:36:32.304Z,99.99
2022-12-25T02:37:32.289Z,99.99
2022-12-25T02:38:32.281Z,99.99
2022-12-25T02:39:32.266Z,99.99
2022-12-25T02:40:32.265Z,99.99
2022-12-25T02:41:32.233Z,99.99
2022-12-25T02:42:32.228Z,99.99
2022-12-25T02:43:32.222Z,99.99
2022-12-25T02:44:32.200Z,99.99
2022-12-25T02:45:32.215Z,99.99
2022-12-25T02:46:32.342Z,99.99
2022-12-25T02:47:32.171Z,99.99
2022-12-25T02:48:32.159Z,99.99
2022-12-25T02:49:32.133Z,99.99
2022-12-25T02:50:32.124Z,99.99
2022-12-25T02:51:32.120Z,99.99
2022-12-25T02:52:32.114Z,99.99
2022-12-25T02:53:32.088Z,99.99
2022-12-25T02:54:32.076Z,99.99
2022-12-25T02:55:32.059Z,99.99
2022-12-25T02:56:32.049Z,99.99
2022-12-25T02:57:32.031Z,99.99
2022-12-25T02:58:32.024Z,99.99
2022-12-25T02:59:32.012Z,99.99
2022-12-25T03:00:31.996Z,99.99
2022-12-25T03:01:32.198Z,99.99
2022-12-25T03:02:32.065Z,99.99
2022-12-25T03:03:32.146Z,99.99
2022-12-25T03:04:31.947Z,99.99
2022-12-25T03:05:31.949Z,99.99
2022-12-25T03:06:31.955Z,99.99
2022-12-25T03:07:31.910Z,99.99
2022-12-25T03:08:31.897Z,99.99
2022-12-25T03:09:31.907Z,99.99
2022-12-25T03:10:31.886Z,99.99
2022-12-25T03:11:31.880Z,99.99
2022-12-25T03:12:31.848Z,99.99
2022-12-25T03:13:31.827Z,99.99
2022-12-25T03:14:31.853Z,99.99
2022-12-25T03:15:31.808Z,99.99
2022-12-25T03:16:31.827Z,99.99
2022-12-25T03:17:31.780Z,99.99
2022-12-25T03:18:32.234Z,99.99
2022-12-25T03:19:31.756Z,99.99
2022-12-25T03:20:31.748Z,99.99
2022-12-25T03:21:31.727Z,99.99
2022-12-25T03:22:31.712Z,99.99
2022-12-25T03:23:31.723Z,99.99
2022-12-25T03:24:31.696Z,99.99
2022-12-25T03:25:31.695Z,99.99
2022-12-25T03:26:31.682Z,99.99
2022-12-25T03:27:31.657Z,99.99
2022-12-25T03:28:31.652Z,99.99
2022-12-25T03:29:32.028Z,99.99
2022-12-25T03:30:31.630Z,99.99
2022-12-25T03:31:31.598Z,99.99
2022-12-25T03:32:31.588Z,99.99
2022-12-25T03:33:46.266Z,99.99
2022-12-25T03:34:32.630Z,99.99
2022-12-25T03:35:31.543Z,99.99
2022-12-25T03:36:31.546Z,99.99
2022-12-25T03:37:31.530Z,99.99
2022-12-25T03:38:31.503Z,99.99
2022-12-25T03:39:31.495Z,99.99
2022-12-25T03:40:31.491Z,99.99
2022-12-25T03:41:31.477Z,99.99
2022-12-25T03:42:31.457Z,99.99
2022-12-25T03:43:31.451Z,99.99
2022-12-25T03:44:31.431Z,99.99
2022-12-25T03:45:31.416Z,99.99
2022-12-25T03:46:31.479Z,99.99
2022-12-25T03:47:31.390Z,99.99
2022-12-25T03:48:31.384Z,99.99
2022-12-25T03:49:31.375Z,99.99
2022-12-25T03:50:31.373Z,99.99
2022-12-25T03:51:31.337Z,99.99
2022-12-25T03:52:31.328Z,99.99
2022-12-25T03:53:31.332Z,99.99
2022-12-25T03:54:31.310Z,99.99
2022-12-25T03:55:31.287Z,99.99
2022-12-25T03:56:31.295Z,99.99
2022-12-25T03:57:31.280Z,99.99
2022-12-25T03:58:31.250Z,99.99
2022-12-25T03:59:31.262Z,99.99
2022-12-25T04:00:31.253Z,99.99
2022-12-25T04:01:31.436Z,99.99
2022-12-25T04:02:31.314Z,99.99
2022-12-25T04:03:31.309Z,99.99
2022-12-25T04:04:31.178Z,99.99
2022-12-25T04:05:31.167Z,99.99
2022-12-25T04:06:31.174Z,99.99
2022-12-25T04:07:31.140Z,99.99
2022-12-25T04:08:31.141Z,99.99
2022-12-25T04:09:31.111Z,99.99
2022-12-25T04:10:31.116Z,99.99
2022-12-25T04:11:31.087Z,99.99
2022-12-25T04:12:31.076Z,99.99
2022-12-25T04:13:31.066Z,99.99
2022-12-25T04:14:31.046Z,99.99
2022-12-25T04:15:31.077Z,99.99
2022-12-25T04:16:31.030Z,99.99
2022-12-25T04:17:31.008Z,99.99
2022-12-25T04:18:30.992Z,99.99
2022-12-25T04:19:30.990Z,99.99
2022-12-25T04:20:30.966Z,99.99
2022-12-25T04:21:30.954Z,99.99
2022-12-25T04:22:30.966Z,99.99
2022-12-25T04:23:30.946Z,99.99
2022-12-25T04:24:30.915Z,99.99
2022-12-25T04:25:30.924Z,99.99
2022-12-25T04:26:30.907Z,99.99
2022-12-25T04:27:30.890Z,99.99
2022-12-25T04:28:30.882Z,99.99
2022-12-25T04:29:30.860Z,99.99
2022-12-25T04:30:30.847Z,99.99
2022-12-25T04:31:30.864Z,99.99
2022-12-25T04:32:30.820Z,99.99
2022-12-25T04:33:30.803Z,99.99
2022-12-25T04:34:30.796Z,99.99
2022-12-25T04:35:30.776Z,99.99
2022-12-25T04:36:30.766Z,99.99
2022-12-25T04:37:30.759Z,99.99
2022-12-25T04:38:30.856Z,99.99
2022-12-25T04:39:30.736Z,99.99
2022-12-25T04:40:30.724Z,99.99
2022-12-25T04:41:30.712Z,99.99
2022-12-25T04:42:30.705Z,99.99
2022-12-25T04:43:30.689Z,99.99
2022-12-25T04:44:30.676Z,99.99
2022-12-25T04:45:30.651Z,99.99
2022-12-25T04:46:30.682Z,99.99
2022-12-25T04:47:30.634Z,99.99
2022-12-25T04:48:30.621Z,99.99
2022-12-25T04:49:30.598Z,99.99
2022-12-25T04:50:30.596Z,99.99
2022-12-25T04:51:30.584Z,99.99
2022-12-25T04:52:30.566Z,99.99
2022-12-25T04:53:30.547Z,99.99
2022-12-25T04:54:30.586Z,99.99
2022-12-25T04:55:30.520Z,99.99
2022-12-25T04:56:30.521Z,99.99
2022-12-25T04:57:30.499Z,99.99
2022-12-25T04:58:30.482Z,99.99
2022-12-25T04:59:30.468Z,99.99
2022-12-25T05:00:30.476Z,99.99
2022-12-25T05:01:30.573Z,99.99
2022-12-25T05:02:30.701Z,99.99
2022-12-25T05:03:30.484Z,99.99
2022-12-25T05:04:30.425Z,99.99
2022-12-25T05:05:30.393Z,99.99
2022-12-25T05:06:30.389Z,99.99
2022-12-25T05:07:30.385Z,99.99
2022-12-25T05:08:30.356Z,99.99
2022-12-25T05:09:30.364Z,99.99
2022-12-25T05:10:30.354Z,99.99
2022-12-25T05:11:30.324Z,99.99
2022-12-25T05:12:30.306Z,99.99
2022-12-25T05:13:30.291Z,99.99
2022-12-25T05:14:30.278Z,99.99
2022-12-25T05:15:30.293Z,99.99
2022-12-25T05:16:30.326Z,99.99
2022-12-25T05:17:30.243Z,99.99
2022-12-25T05:18:30.224Z,99.99
2022-12-25T05:19:30.223Z,99.99
2022-12-25T05:20:33.438Z,99.99
2022-12-25T05:21:31.241Z,99.99
2022-12-25T05:22:30.182Z,99.99
2022-12-25T05:23:30.192Z,99.99
2022-12-25T05:24:30.167Z,99.99
2022-12-25T05:25:30.151Z,99.99
2022-12-25T05:26:30.161Z,99.99
2022-12-25T05:27:30.111Z,99.99
2022-12-25T05:28:30.107Z,99.99
2022-12-25T05:29:30.098Z,99.99
2022-12-25T05:30:30.080Z,99.99
2022-12-25T05:31:30.231Z,99.99
2022-12-25T05:32:30.049Z,99.99
2022-12-25T05:33:30.038Z,99.99
2022-12-25T05:34:30.031Z,99.99
2022-12-25T05:35:30.019Z,99.99
2022-12-25T05:36:30.013Z,99.99
2022-12-25T05:37:29.993Z,99.99
2022-12-25T05:38:29.969Z,99.99
2022-12-25T05:39:29.957Z,99.99
2022-12-25T05:40:29.951Z,99.99
2022-12-25T05:41:34.198Z,99.99
2022-12-25T05:42:29.951Z,99.99
2022-12-25T05:43:29.921Z,99.99
2022-12-25T05:44:29.895Z,99.99
2022-12-25T05:45:29.894Z,99.99
2022-12-25T05:46:29.936Z,99.99
2022-12-25T05:47:29.871Z,99.99
2022-12-25T05:48:29.869Z,99.99
2022-12-25T05:49:29.839Z,99.99
2022-12-25T05:50:29.821Z,99.99
2022-12-25T05:51:29.815Z,99.99
2022-12-25T05:52:29.800Z,99.99
2022-12-25T05:53:29.787Z,99.99
2022-12-25T05:54:29.770Z,99.99
2022-12-25T05:55:29.754Z,99.99
2022-12-25T05:56:29.752Z,99.99
2022-12-25T05:57:29.739Z,99.99
2022-12-25T05:58:29.739Z,99.99
2022-12-25T05:59:29.699Z,99.99
2022-12-25T06:00:29.695Z,99.99
2022-12-25T06:01:29.914Z,99.99
2022-12-25T06:02:29.987Z,99.99
2022-12-25T06:03:29.863Z,99.99
2022-12-25T06:04:29.645Z,99.99
2022-12-25T06:05:29.627Z,99.99
2022-12-25T06:06:29.631Z,99.99
2022-12-25T06:07:29.597Z,99.99
2022-12-25T06:08:29.596Z,99.99
2022-12-25T06:09:29.587Z,99.99
2022-12-25T06:10:29.563Z,99.99
2022-12-25T06:11:29.563Z,99.99
2022-12-25T06:12:29.537Z,99.99
2022-12-25T06:13:29.529Z,99.99
2022-12-25T06:14:29.537Z,99.99
2022-12-25T06:15:29.493Z,99.99
2022-12-25T06:16:35.615Z,99.99
2022-12-25T06:17:30.497Z,99.99
2022-12-25T06:18:29.462Z,99.99
2022-12-25T06:19:29.450Z,99.99
2022-12-25T06:20:29.453Z,99.99
2022-12-25T06:21:29.424Z,99.99
2022-12-25T06:22:29.402Z,99.99
2022-12-25T06:23:29.471Z,99.99
2022-12-25T06:24:29.385Z,99.99
2022-12-25T06:25:29.378Z,99.99
2022-12-25T06:26:29.369Z,99.99
2022-12-25T06:27:29.339Z,99.99
2022-12-25T06:28:29.341Z,99.99
2022-12-25T06:29:29.326Z,99.99
2022-12-25T06:30:29.327Z,99.99
2022-12-25T06:31:29.404Z,99.99
2022-12-25T06:32:29.275Z,99.99
2022-12-25T06:33:29.276Z,99.99
2022-12-25T06:34:29.255Z,99.99
2022-12-25T06:35:29.256Z,99.99
2022-12-25T06:36:29.227Z,99.99
2022-12-25T06:37:29.225Z,99.99
2022-12-25T06:38:29.198Z,99.99
2022-12-25T06:39:29.194Z,99.99
2022-12-25T06:40:29.174Z,99.99
2022-12-25T06:41:29.174Z,99.99
2022-12-25T06:42:29.160Z,99.99
2022-12-25T06:43:29.142Z,99.99
2022-12-25T06:44:29.128Z,99.99
2022-12-25T06:45:29.160Z,99.99
2022-12-25T06:46:29.130Z,99.99
2022-12-25T06:47:29.087Z,99.99
2022-12-25T06:48:29.071Z,99.99
2022-12-25T06:49:29.081Z,99.99
2022-12-25T06:50:29.061Z,99.99
2022-12-25T06:51:29.034Z,99.99
2022-12-25T06:52:29.029Z,99.99
2022-12-25T06:53:33.544Z,99.99
2022-12-25T06:54:30.059Z,99.99
2022-12-25T06:55:28.983Z,99.99
2022-12-25T06:56:28.995Z,99.99
2022-12-25T06:57:28.956Z,99.99
2022-12-25T06:58:28.956Z,99.99
2022-12-25T06:59:28.929Z,99.99
2022-12-25T07:00:28.924Z,99.99
2022-12-25T07:01:29.077Z,99.99
2022-12-25T07:02:29.033Z,99.99
2022-12-25T07:03:28.951Z,99.99
2022-12-25T07:04:28.866Z,99.99
2022-12-25T07:05:28.863Z,99.99
2022-12-25T07:06:28.846Z,99.99
2022-12-25T07:07:28.841Z,99.99
2022-12-25T07:08:28.823Z,99.99
2022-12-25T07:09:28.803Z,99.99
2022-12-25T07:10:28.827Z,99.99
2022-12-25T07:11:28.791Z,99.99
2022-12-25T07:12:28.761Z,99.99
2022-12-25T07:13:28.760Z,99.99
2022-12-25T07:14:28.746Z,99.99
2022-12-25T07:15:28.732Z,99.99
2022-12-25T07:16:28.759Z,99.99
2022-12-25T07:17:28.707Z,99.99
2022-12-25T07:18:28.716Z,99.99
2022-12-25T07:19:28.676Z,99.99
2022-12-25T07:20:28.728Z,99.99
2022-12-25T07:21:28.648Z,99.99
2022-12-25T07:22:28.637Z,99.99
2022-12-25T07:23:28.640Z,99.99
2022-12-25T07:24:28.613Z,99.99
2022-12-25T07:25:33.551Z,99.99
2022-12-25T07:26:29.610Z,99.99
2022-12-25T07:27:28.582Z,99.99
2022-12-25T07:28:28.570Z,99.99
2022-12-25T07:29:28.558Z,99.99
2022-12-25T07:30:28.596Z,99.99
2022-12-25T07:31:28.546Z,99.99
2022-12-25T07:32:28.516Z,99.99
2022-12-25T07:33:28.515Z,99.99
2022-12-25T07:34:28.524Z,99.99
2022-12-25T07:35:28.473Z,99.99
2022-12-25T07:36:28.462Z,99.99
2022-12-25T07:37:28.444Z,99.99
2022-12-25T07:38:28.434Z,99.99
2022-12-25T07:39:28.447Z,99.99
2022-12-25T07:40:28.507Z,99.99
2022-12-25T07:41:28.409Z,99.99
2022-12-25T07:42:28.397Z,99.99
2022-12-25T07:43:28.382Z,99.99
2022-12-25T07:44:28.371Z,99.99
2022-12-25T07:45:28.399Z,99.99
2022-12-25T07:46:28.427Z,99.99
2022-12-25T07:47:28.331Z,99.99
2022-12-25T07:48:28.379Z,99.99
2022-12-25T07:49:28.307Z,99.99
2022-12-25T07:50:28.344Z,99.99
2022-12-25T07:51:28.282Z,99.99
2022-12-25T07:52:28.260Z,99.99
2022-12-25T07:53:28.240Z,99.99
2022-12-25T07:54:28.240Z,99.99
2022-12-25T07:55:28.230Z,99.99
2022-12-25T07:56:28.234Z,99.99
2022-12-25T07:57:28.194Z,99.99
2022-12-25T07:58:28.176Z,99.99
2022-12-25T07:59:28.165Z,99.99
2022-12-25T08:00:28.151Z,99.99
2022-12-25T08:01:28.354Z,99.99
2022-12-25T08:02:28.593Z,99.99
2022-12-25T08:03:28.259Z,99.99
2022-12-25T08:04:28.112Z,99.99
2022-12-25T08:05:28.094Z,99.99
2022-12-25T08:06:28.096Z,99.99
2022-12-25T08:07:28.074Z,99.99
2022-12-25T08:08:28.048Z,99.99
2022-12-25T08:09:28.045Z,99.99
2022-12-25T08:10:28.030Z,99.99
2022-12-25T08:11:28.019Z,99.99
2022-12-25T08:12:28.001Z,99.99
2022-12-25T08:13:27.993Z,99.99
2022-12-25T08:14:27.971Z,99.99
2022-12-25T08:15:27.968Z,99.99
2022-12-25T08:16:28.024Z,99.99
2022-12-25T08:17:27.970Z,99.99
2022-12-25T08:18:30.251Z,99.99
2022-12-25T08:19:27.911Z,99.99
2022-12-25T08:20:27.904Z,99.99
2022-12-25T08:21:27.905Z,99.99
2022-12-25T08:22:27.908Z,99.99
2022-12-25T08:23:27.901Z,99.99
2022-12-25T08:24:27.865Z,99.99
2022-12-25T08:25:27.847Z,99.99
2022-12-25T08:26:27.829Z,99.99
2022-12-25T08:27:27.819Z,99.99
2022-12-25T08:28:27.817Z,99.99
2022-12-25T08:29:27.799Z,99.99
2022-12-25T08:30:27.812Z,99.99
2022-12-25T08:31:27.916Z,99.99
2022-12-25T08:32:27.747Z,99.99
2022-12-25T08:33:27.742Z,99.99
2022-12-25T08:34:27.727Z,99.99
2022-12-25T08:35:27.715Z,99.99
2022-12-25T08:36:27.704Z,99.99
2022-12-25T08:37:27.697Z,99.99
2022-12-25T08:38:27.691Z,99.99
2022-12-25T08:39:27.668Z,99.99
2022-12-25T08:40:27.652Z,99.99
2022-12-25T08:41:27.652Z,99.99
2022-12-25T08:42:27.631Z,99.99
2022-12-25T08:43:27.599Z,99.99
2022-12-25T08:44:27.609Z,99.99
2022-12-25T08:45:34.588Z,99.99
2022-12-25T08:46:28.698Z,99.99
2022-12-25T08:47:27.564Z,99.99
2022-12-25T08:48:27.570Z,99.99
2022-12-25T08:49:27.550Z,99.99
2022-12-25T08:50:27.514Z,99.99
2022-12-25T08:51:27.514Z,99.99
2022-12-25T08:52:27.505Z,99.99
2022-12-25T08:53:27.482Z,99.99
2022-12-25T08:54:27.496Z,99.99
2022-12-25T08:55:27.450Z,99.99
2022-12-25T08:56:27.451Z,99.99
2022-12-25T08:57:27.425Z,99.99
2022-12-25T08:58:27.444Z,99.99
2022-12-25T08:59:27.408Z,99.99
2022-12-25T09:00:27.394Z,99.99
2022-12-25T09:01:27.557Z,99.99
2022-12-25T09:02:27.539Z,99.99
2022-12-25T09:03:27.365Z,99.99
2022-12-25T09:04:27.348Z,99.99
2022-12-25T09:05:27.333Z,99.99
2022-12-25T09:06:27.322Z,99.99
2022-12-25T09:07:27.308Z,99.99
2022-12-25T09:08:27.290Z,99.99
2022-12-25T09:09:27.284Z,99.99
2022-12-25T09:10:27.289Z,99.99
2022-12-25T09:11:27.250Z,99.99
2022-12-25T09:12:27.235Z,99.99
2022-12-25T09:13:27.233Z,99.99
2022-12-25T09:14:27.220Z,99.99
2022-12-25T09:15:27.375Z,99.99
2022-12-25T09:16:27.246Z,99.99
2022-12-25T09:17:27.173Z,99.99
2022-12-25T09:18:27.171Z,99.99
2022-12-25T09:19:27.149Z,99.99
2022-12-25T09:20:27.128Z,99.99
2022-12-25T09:21:27.127Z,99.99
2022-12-25T09:22:27.111Z,99.99
2022-12-25T09:23:27.095Z,99.99
2022-12-25T09:24:27.085Z,99.99
2022-12-25T09:25:27.064Z,99.99
2022-12-25T09:26:27.085Z,99.99
2022-12-25T09:27:27.047Z,99.99
2022-12-25T09:28:27.033Z,99.99
2022-12-25T09:29:27.033Z,99.99
2022-12-25T09:30:27.016Z,99.99
2022-12-25T09:31:27.094Z,99.99
2022-12-25T09:32:26.989Z,99.99
2022-12-25T09:33:26.962Z,99.99
2022-12-25T09:34:26.962Z,99.99
2022-12-25T09:35:26.936Z,99.99
2022-12-25T09:36:26.924Z,99.99
2022-12-25T09:37:26.914Z,99.99
2022-12-25T09:38:26.917Z,99.99
2022-12-25T09:39:26.888Z,99.99
2022-12-25T09:40:26.885Z,99.99
2022-12-25T09:41:26.873Z,99.99
2022-12-25T09:42:26.880Z,99.99
2022-12-25T09:43:26.846Z,99.99
2022-12-25T09:44:26.824Z,99.99
2022-12-25T09:45:26.823Z,99.99
2022-12-25T09:46:31.640Z,99.99
2022-12-25T09:47:27.814Z,99.99
2022-12-25T09:48:26.783Z,99.99
2022-12-25T09:49:26.771Z,99.99
2022-12-25T09:50:26.755Z,99.99
2022-12-25T09:51:26.753Z,99.99
2022-12-25T09:52:26.723Z,99.99
2022-12-25T09:53:26.705Z,99.99
2022-12-25T09:54:26.701Z,99.99
2022-12-25T09:55:26.694Z,99.99
2022-12-25T09:56:26.691Z,99.99
2022-12-25T09:57:26.656Z,99.99
2022-12-25T09:58:26.664Z,99.99
2022-12-25T09:59:26.634Z,99.99
2022-12-25T10:00:26.630Z,99.99
2022-12-25T10:01:26.688Z,99.99
2022-12-25T10:02:26.820Z,99.99
2022-12-25T10:03:26.656Z,99.99
2022-12-25T10:04:26.571Z,99.99
2022-12-25T10:05:26.566Z,99.99
2022-12-25T10:06:26.547Z,99.99
2022-12-25T10:07:26.530Z,99.99
2022-12-25T10:08:26.515Z,99.99
2022-12-25T10:09:26.514Z,99.99
2022-12-25T10:10:26.508Z,99.99
2022-12-25T10:11:26.477Z,99.99
2022-12-25T10:12:26.472Z,99.99
2022-12-25T10:13:26.464Z,99.99
2022-12-25T10:14:26.462Z,99.99
2022-12-25T10:15:26.434Z,99.99
2022-12-25T10:16:26.506Z,99.99
2022-12-25T10:17:26.406Z,99.99
2022-12-25T10:18:26.386Z,99.99
2022-12-25T10:19:26.379Z,99.99
2022-12-25T10:20:26.362Z,99.99
2022-12-25T10:21:26.355Z,99.99
2022-12-25T10:22:26.335Z,99.99
2022-12-25T10:23:26.329Z,99.99
2022-12-25T10:24:26.312Z,99.99
2022-12-25T10:25:26.297Z,99.99
2022-12-25T10:26:26.289Z,99.99
2022-12-25T10:27:26.271Z,99.99
2022-12-25T10:28:26.276Z,99.99
2022-12-25T10:29:26.252Z,99.99
2022-12-25T10:30:26.272Z,99.99
2022-12-25T10:31:26.315Z,99.99
2022-12-25T10:32:26.218Z,99.99
2022-12-25T10:33:26.197Z,99.82
2022-12-25T10:34:26.189Z,99.82
2022-12-25T10:35:26.184Z,99.51
2022-12-25T10:36:26.153Z,99.51
2022-12-25T10:37:26.151Z,99.41
2022-12-25T10:38:26.162Z,99.41
2022-12-25T10:39:26.138Z,99.51
2022-12-25T10:40:26.104Z,99.62
2022-12-25T10:41:26.105Z,99.41
2022-12-25T10:42:26.093Z,99.66
2022-12-25T10:43:26.079Z,99.62
2022-12-25T10:44:26.055Z,99.41
2022-12-25T10:45:26.046Z,99.66
2022-12-25T10:46:26.077Z,99.82
2022-12-25T10:47:26.033Z,99.99
2022-12-25T10:48:26.008Z,99.99
2022-12-25T10:49:25.997Z,99.88
2022-12-25T10:50:25.988Z,99.88
2022-12-25T10:51:25.969Z,99.67
2022-12-25T10:52:25.949Z,99.57
2022-12-25T10:53:25.943Z,99.16
2022-12-25T10:54:25.946Z,99.05
2022-12-25T10:55:29.101Z,98.85
2022-12-25T10:56:25.913Z,98.75
2022-12-25T10:57:25.900Z,98.44
2022-12-25T10:58:25.875Z,98.33
2022-12-25T10:59:25.871Z,98.44
2022-12-25T11:00:25.848Z,98.65
2022-12-25T11:01:25.922Z,98.65
2022-12-25T11:02:26.140Z,98.85
2022-12-25T11:03:26.046Z,99.05
2022-12-25T11:04:25.800Z,99.05
2022-12-25T11:05:25.797Z,99.16
2022-12-25T11:06:25.774Z,99.16
2022-12-25T11:07:25.755Z,99.05
2022-12-25T11:08:25.742Z,99.47
2022-12-25T11:09:25.736Z,99.88
2022-12-25T11:10:25.723Z,99.99
2022-12-25T11:11:25.701Z,99.99
2022-12-25T11:12:25.688Z,99.99
2022-12-25T11:13:25.675Z,99.99
2022-12-25T11:14:25.665Z,99.99
2022-12-25T11:15:25.651Z,99.68
2022-12-25T11:16:25.751Z,99.02
2022-12-25T11:17:25.641Z,98.61
2022-12-25T11:18:25.641Z,98.46
2022-12-25T11:19:25.601Z,98.67
2022-12-25T11:20:25.592Z,98.25
2022-12-25T11:21:25.597Z,98.16
2022-12-25T11:22:25.577Z,98.16
2022-12-25T11:23:25.559Z,98.00
2022-12-25T11:24:25.551Z,97.91
2022-12-25T11:25:25.568Z,97.70
2022-12-25T11:26:25.518Z,97.70
2022-12-25T11:27:25.534Z,97.60
2022-12-25T11:28:25.500Z,97.70
2022-12-25T11:29:25.476Z,97.55
2022-12-25T11:30:25.464Z,97.65
2022-12-25T11:31:25.625Z,97.45
2022-12-25T11:32:25.436Z,97.55
2022-12-25T11:33:25.415Z,97.45
2022-12-25T11:34:25.430Z,97.40
2022-12-25T11:35:25.425Z,96.69
2022-12-25T11:36:25.416Z,96.83
2022-12-25T11:37:25.411Z,96.94
2022-12-25T11:38:25.411Z,96.83
2022-12-25T11:39:25.371Z,96.94
2022-12-25T11:40:25.337Z,96.94
2022-12-25T11:41:25.320Z,97.04
2022-12-25T11:42:25.300Z,97.24
2022-12-25T11:43:25.312Z,97.45
2022-12-25T11:44:25.279Z,97.70
2022-12-25T11:45:25.298Z,98.16
2022-12-25T11:46:25.304Z,98.37
2022-12-25T11:47:25.267Z,98.47
2022-12-25T11:48:25.228Z,98.68
2022-12-25T11:49:25.218Z,98.88
2022-12-25T11:50:25.224Z,98.99
2022-12-25T11:51:25.188Z,98.88
2022-12-25T11:52:25.184Z,98.88
2022-12-25T11:53:25.181Z,98.63
2022-12-25T11:54:25.175Z,98.99
2022-12-25T11:55:25.142Z,98.68
2022-12-25T11:56:25.127Z,98.58
2022-12-25T11:57:25.132Z,98.68
2022-12-25T11:58:25.105Z,98.63
2022-12-25T11:59:25.087Z,98.74
2022-12-25T12:00:25.076Z,98.83
2022-12-25T12:01:25.100Z,99.25
2022-12-25T12:02:25.231Z,99.51
2022-12-25T12:03:25.253Z,99.10
2022-12-25T12:04:30.046Z,98.99
2022-12-25T12:05:26.048Z,98.90
2022-12-25T12:06:25.017Z,98.54
2022-12-25T12:07:24.995Z,98.74
2022-12-25T12:08:24.979Z,98.65
2022-12-25T12:09:24.992Z,98.74
2022-12-25T12:10:24.951Z,98.13
2022-12-25T12:11:24.929Z,97.92
2022-12-25T12:12:24.933Z,97.92
2022-12-25T12:13:24.918Z,97.92
2022-12-25T12:14:24.901Z,98.03
2022-12-25T12:15:24.885Z,98.08
2022-12-25T12:16:24.944Z,97.98
2022-12-25T12:17:24.870Z,97.88
2022-12-25T12:18:24.847Z,97.57
2022-12-25T12:19:24.835Z,97.16
2022-12-25T12:20:24.830Z,96.96
2022-12-25T12:21:24.813Z,96.66
2022-12-25T12:22:24.831Z,96.25
2022-12-25T12:23:24.783Z,96.04
2022-12-25T12:24:24.762Z,96.14
2022-12-25T12:25:24.757Z,96.25
2022-12-25T12:26:24.745Z,96.34
2022-12-25T12:27:24.724Z,96.49
2022-12-25T12:28:24.734Z,96.39
2022-12-25T12:29:24.714Z,96.19
2022-12-25T12:30:24.687Z,95.57
2022-12-25T12:31:24.732Z,95.67
2022-12-25T12:32:24.661Z,95.17
2022-12-25T12:33:24.661Z,95.57
2022-12-25T12:34:24.647Z,95.06
2022-12-25T12:35:24.640Z,95.06
2022-12-25T12:36:34.418Z,94.65
2022-12-25T12:37:25.641Z,94.75
2022-12-25T12:38:24.618Z,95.06
2022-12-25T12:39:24.581Z,95.67
2022-12-25T12:40:24.560Z,95.26
2022-12-25T12:41:24.557Z,94.80
2022-12-25T12:42:24.555Z,94.18
2022-12-25T12:43:24.536Z,94.80
2022-12-25T12:44:24.524Z,94.80
2022-12-25T12:45:24.515Z,95.00
2022-12-25T12:46:30.657Z,95.62
2022-12-25T12:47:24.469Z,95.62
2022-12-25T12:48:24.485Z,94.90
2022-12-25T12:49:24.483Z,95.31
2022-12-25T12:50:24.466Z,95.62
2022-12-25T12:51:24.433Z,95.62
2022-12-25T12:52:24.445Z,95.31